createdAt,value
2023-01-18T00:00:52.573Z,69.02
2023-01-18T00:03:25.058Z,69.09
2023-01-18T00:05:54.504Z,69.09
2023-01-18T00:08:21.740Z,69.09
2023-01-18T00:10:48.891Z,69.07
2023-01-18T00:13:16.096Z,69.01
2023-01-18T00:15:43.269Z,68.95
2023-01-18T00:18:10.422Z,69.02
2023-01-18T00:20:37.576Z,68.89
2023-01-18T00:23:04.720Z,68.84
2023-01-18T00:25:31.795Z,68.90
2023-01-18T00:27:59.022Z,68.86
2023-01-18T00:30:28.147Z,68.78
2023-01-18T00:32:57.604Z,68.87
2023-01-18T00:35:25.822Z,69.01
2023-01-18T00:37:54.065Z,68.83
2023-01-18T00:40:24.426Z,68.90
2023-01-18T00:43:10.555Z,68.84
2023-01-18T00:45:37.780Z,68.90
2023-01-18T00:48:05.384Z,69.12
2023-01-18T00:50:32.564Z,69.04
2023-01-18T00:53:00.462Z,68.94
2023-01-18T00:55:28.275Z,68.92
2023-01-18T00:57:55.445Z,68.79
2023-01-18T01:00:23.852Z,68.84
2023-01-18T01:02:51.866Z,68.90
2023-01-18T01:05:42.817Z,68.77
2023-01-18T01:08:17.128Z,68.86
2023-01-18T01:10:47.038Z,68.97
2023-01-18T01:13:34.936Z,68.91
2023-01-18T01:16:28.594Z,68.83
2023-01-18T01:19:15.002Z,68.84
2023-01-18T01:22:01.186Z,68.83
2023-01-18T01:24:47.018Z,68.82
2023-01-18T01:27:14.398Z,68.88
2023-01-18T01:29:41.521Z,68.90
2023-01-18T01:32:09.487Z,68.74
2023-01-18T01:34:37.314Z,68.70
2023-01-18T01:37:04.802Z,68.70
2023-01-18T01:39:32.094Z,68.76
2023-01-18T01:41:59.275Z,68.57
2023-01-18T01:44:29.917Z,68.64
2023-01-18T01:47:03.025Z,68.70
2023-01-18T01:49:35.052Z,68.68
2023-01-18T01:52:08.552Z,68.68
2023-01-18T01:54:58.521Z,68.64
2023-01-18T01:57:30.470Z,68.70
2023-01-18T02:00:01.544Z,68.67
2023-01-18T02:02:40.938Z,68.73
2023-01-18T02:05:12.436Z,68.68
2023-01-18T02:07:39.877Z,68.78
2023-01-18T02:10:07.824Z,68.78
2023-01-18T02:12:36.218Z,68.81
2023-01-18T02:15:04.366Z,68.74
2023-01-18T02:18:10.523Z,68.82
2023-01-18T02:21:16.823Z,68.54
2023-01-18T02:24:06.071Z,68.69
2023-01-18T02:27:04.994Z,68.72
2023-01-18T02:29:34.990Z,68.78
2023-01-18T02:32:44.628Z,68.73
2023-01-18T02:35:20.510Z,68.79
2023-01-18T02:38:04.095Z,68.58
2023-01-18T02:40:34.356Z,68.78
2023-01-18T02:43:25.535Z,68.84
2023-01-18T02:46:11.600Z,68.72
2023-01-18T02:48:40.546Z,68.85
2023-01-18T02:51:08.261Z,68.69
2023-01-18T02:53:41.453Z,68.75
2023-01-18T02:56:14.173Z,68.77
2023-01-18T02:58:53.948Z,68.80
2023-01-18T03:01:28.801Z,68.66
2023-01-18T03:04:00.832Z,68.72
2023-01-18T03:06:29.769Z,68.71
2023-01-18T03:08:59.928Z,68.61
2023-01-18T03:11:33.568Z,68.69
2023-01-18T03:14:27.731Z,68.73
2023-01-18T03:17:08.392Z,68.89
2023-01-18T03:20:03.983Z,68.88
2023-01-18T03:22:54.998Z,68.92
2023-01-18T03:25:33.447Z,68.79
2023-01-18T03:28:25.116Z,68.88
2023-01-18T03:31:14.643Z,68.88
2023-01-18T03:33:48.339Z,68.94
2023-01-18T03:36:35.743Z,68.72
2023-01-18T03:39:07.270Z,68.77
2023-01-18T03:41:40.204Z,68.82
2023-01-18T03:44:12.886Z,68.93
2023-01-18T03:46:41.366Z,68.79
2023-01-18T03:49:08.670Z,68.75
2023-01-18T03:51:54.656Z,68.85
2023-01-18T03:54:56.043Z,68.92
2023-01-18T03:57:45.796Z,68.84
2023-01-18T04:00:14.894Z,68.94
2023-01-18T04:02:45.210Z,68.91
2023-01-18T04:05:13.224Z,68.98
2023-01-18T04:07:40.422Z,68.79
2023-01-18T04:10:08.259Z,68.87
2023-01-18T04:12:35.522Z,68.65
2023-01-18T04:15:03.787Z,68.68
2023-01-18T04:17:31.532Z,68.76
2023-01-18T04:19:58.790Z,68.75
2023-01-18T04:22:26.110Z,68.77
2023-01-18T04:24:53.260Z,68.79
2023-01-18T04:27:20.650Z,68.93
2023-01-18T04:29:48.458Z,69.05
2023-01-18T04:32:15.684Z,68.87
2023-01-18T04:34:42.962Z,68.80
2023-01-18T04:37:10.214Z,69.05
2023-01-18T04:39:37.289Z,68.83
2023-01-18T04:42:04.769Z,68.91
2023-01-18T04:44:31.973Z,69.13
2023-01-18T04:46:59.135Z,68.89
2023-01-18T04:49:27.901Z,69.00
2023-01-18T04:51:55.168Z,69.00
2023-01-18T04:54:22.323Z,68.86
2023-01-18T04:56:49.520Z,68.88
2023-01-18T04:59:16.945Z,68.92
2023-01-18T05:01:44.382Z,69.03
2023-01-18T05:04:11.560Z,69.01
2023-01-18T05:06:38.769Z,69.13
2023-01-18T05:09:05.989Z,68.91
2023-01-18T05:11:33.293Z,68.90
2023-01-18T05:14:00.480Z,69.07
2023-01-18T05:16:28.258Z,68.94
2023-01-18T05:18:55.721Z,69.07
2023-01-18T05:21:22.951Z,69.06
2023-01-18T05:23:50.061Z,69.08
2023-01-18T05:26:19.967Z,69.04
2023-01-18T05:28:48.139Z,69.10
2023-01-18T05:31:16.500Z,68.94
2023-01-18T05:33:43.665Z,69.00
2023-01-18T05:36:10.892Z,69.01
2023-01-18T05:38:38.095Z,69.03
2023-01-18T05:41:05.396Z,69.12
2023-01-18T05:43:33.809Z,68.91
2023-01-18T05:46:01.852Z,68.93
2023-01-18T05:48:29.209Z,68.93
2023-01-18T05:50:56.484Z,68.96
2023-01-18T05:53:23.865Z,69.13
2023-01-18T05:55:59.063Z,69.07
2023-01-18T05:58:27.531Z,68.91
2023-01-18T06:00:55.238Z,68.90
2023-01-18T06:03:23.794Z,68.83
2023-01-18T06:05:54.350Z,68.89
2023-01-18T06:08:21.999Z,68.97
2023-01-18T06:10:57.349Z,68.86
2023-01-18T06:13:28.108Z,68.88
2023-01-18T06:15:56.926Z,68.77
2023-01-18T06:18:26.640Z,68.80
2023-01-18T06:20:55.313Z,68.99
2023-01-18T06:23:22.568Z,69.07
2023-01-18T06:25:49.899Z,68.86
2023-01-18T06:28:17.316Z,68.88
2023-01-18T06:30:44.534Z,68.98
2023-01-18T06:33:11.733Z,68.92
2023-01-18T06:35:38.858Z,68.82
2023-01-18T06:38:06.039Z,69.04
2023-01-18T06:40:33.621Z,68.98
2023-01-18T06:43:01.168Z,68.73
2023-01-18T06:45:29.536Z,68.94
2023-01-18T06:47:57.354Z,68.84
2023-01-18T06:50:24.681Z,68.83
2023-01-18T06:52:52.256Z,69.06
2023-01-18T06:55:22.644Z,68.88
2023-01-18T06:57:49.844Z,68.92
2023-01-18T07:00:17.493Z,68.83
2023-01-18T07:02:44.763Z,69.00
2023-01-18T07:05:12.012Z,69.00
2023-01-18T07:07:39.123Z,68.98
2023-01-18T07:10:06.896Z,68.86
2023-01-18T07:12:34.209Z,68.98
2023-01-18T07:15:09.896Z,68.97
2023-01-18T07:17:47.301Z,68.92
2023-01-18T07:20:16.013Z,68.99
2023-01-18T07:22:43.137Z,68.95
2023-01-18T07:25:13.575Z,69.03
2023-01-18T07:27:43.648Z,68.98
2023-01-18T07:30:14.868Z,68.94
2023-01-18T07:32:48.838Z,68.97
2023-01-18T07:35:18.453Z,69.02
2023-01-18T07:37:53.399Z,69.06
2023-01-18T07:40:21.704Z,68.93
2023-01-18T07:42:50.089Z,68.93
2023-01-18T07:45:18.006Z,69.01
2023-01-18T07:47:46.436Z,69.00
2023-01-18T07:50:14.514Z,68.89
2023-01-18T07:52:41.687Z,68.99
2023-01-18T07:55:09.351Z,69.07
2023-01-18T07:57:36.549Z,69.08
2023-01-18T08:00:07.243Z,68.91
2023-01-18T08:02:40.975Z,69.04
2023-01-18T08:05:10.688Z,69.09
2023-01-18T08:07:37.954Z,69.13
2023-01-18T08:10:05.818Z,69.11
2023-01-18T08:12:33.095Z,69.13
2023-01-18T08:15:00.918Z,69.18
2023-01-18T08:17:29.864Z,69.08
2023-01-18T08:19:57.134Z,69.01
2023-01-18T08:22:24.323Z,68.98
2023-01-18T08:24:51.598Z,69.06
2023-01-18T08:27:19.714Z,68.99
2023-01-18T08:29:48.284Z,69.17
2023-01-18T08:32:15.581Z,69.10
2023-01-18T08:34:42.931Z,69.09
2023-01-18T08:37:11.911Z,69.08
2023-01-18T08:39:39.184Z,68.99
2023-01-18T08:42:06.380Z,69.08
2023-01-18T08:44:33.557Z,69.24
2023-01-18T08:47:00.681Z,69.23
2023-01-18T08:49:27.937Z,69.22
2023-01-18T08:51:55.239Z,69.24
2023-01-18T08:54:22.389Z,69.23
2023-01-18T08:56:49.590Z,69.17
2023-01-18T08:59:17.021Z,69.06
2023-01-18T09:01:44.233Z,69.14
2023-01-18T09:04:11.921Z,69.09
2023-01-18T09:06:39.167Z,69.19
2023-01-18T09:09:06.346Z,69.12
2023-01-18T09:11:33.568Z,68.99
2023-01-18T09:14:02.282Z,69.04
2023-01-18T09:16:30.649Z,69.21
2023-01-18T09:18:58.625Z,69.20
2023-01-18T09:21:28.215Z,69.29
2023-01-18T09:23:55.352Z,69.25
2023-01-18T09:26:22.647Z,69.27
2023-01-18T09:28:54.810Z,69.39
2023-01-18T09:31:25.089Z,69.33
2023-01-18T09:33:53.953Z,69.14
2023-01-18T09:36:26.552Z,69.28
2023-01-18T09:38:55.922Z,69.19
2023-01-18T09:41:36.493Z,69.20
2023-01-18T09:44:18.091Z,69.24
2023-01-18T09:46:45.810Z,69.39
2023-01-18T09:49:22.458Z,69.32
2023-01-18T09:51:54.926Z,69.42
2023-01-18T09:54:24.916Z,69.37
2023-01-18T09:57:15.925Z,69.41
2023-01-18T09:59:54.031Z,69.42
2023-01-18T10:02:25.843Z,69.57
2023-01-18T10:04:59.164Z,69.48
2023-01-18T10:07:29.541Z,69.23
2023-01-18T10:10:03.396Z,69.41
2023-01-18T10:12:43.793Z,69.45
2023-01-18T10:15:34.489Z,69.27
2023-01-18T10:18:02.028Z,69.48
2023-01-18T10:20:41.282Z,69.52
2023-01-18T10:23:11.578Z,69.51
2023-01-18T10:25:44.733Z,69.44
2023-01-18T10:28:26.320Z,69.53
2023-01-18T10:30:56.714Z,69.47
2023-01-18T10:33:27.701Z,69.41
2023-01-18T10:36:00.362Z,69.38
2023-01-18T10:38:30.315Z,69.41
2023-01-18T10:41:02.111Z,69.45
2023-01-18T10:43:32.002Z,69.40
2023-01-18T10:45:59.352Z,69.35
2023-01-18T10:48:29.050Z,69.39
2023-01-18T10:50:59.653Z,69.29
2023-01-18T10:53:38.646Z,69.38
2023-01-18T10:56:17.601Z,69.49
2023-01-18T10:58:50.922Z,69.39
2023-01-18T11:01:22.769Z,69.31
2023-01-18T11:03:55.540Z,69.45
2023-01-18T11:06:24.556Z,69.50
2023-01-18T11:08:52.707Z,69.48
2023-01-18T11:11:50.531Z,69.43
2023-01-18T11:14:28.559Z,69.52
2023-01-18T11:17:04.026Z,69.60
2023-01-18T11:19:31.296Z,69.80
2023-01-18T11:21:58.438Z,69.61
2023-01-18T11:24:31.220Z,69.47
2023-01-18T11:27:04.135Z,69.38
2023-01-18T11:29:43.126Z,69.42
2023-01-18T11:32:28.791Z,69.46
2023-01-18T11:35:02.644Z,69.47
2023-01-18T11:37:34.518Z,69.35
2023-01-18T11:40:32.428Z,69.49
2023-01-18T11:43:18.063Z,69.48
2023-01-18T11:45:53.619Z,69.55
2023-01-18T11:48:35.976Z,69.46
2023-01-18T11:51:10.841Z,69.41
2023-01-18T11:53:41.691Z,69.38
2023-01-18T11:56:12.323Z,69.40
2023-01-18T11:58:40.624Z,69.34
2023-01-18T12:01:10.981Z,69.41
2023-01-18T12:03:44.015Z,69.50
2023-01-18T12:06:27.343Z,69.47
2023-01-18T12:09:18.837Z,69.54
2023-01-18T12:11:57.992Z,69.42
2023-01-18T12:15:05.183Z,69.51
2023-01-18T12:17:38.226Z,69.43
2023-01-18T12:20:19.300Z,69.66
2023-01-18T12:22:46.412Z,69.65
2023-01-18T12:25:47.571Z,69.57
2023-01-18T12:28:28.735Z,69.56
2023-01-18T12:31:26.394Z,69.58
2023-01-18T12:34:05.922Z,69.48
2023-01-18T12:36:46.763Z,69.48
2023-01-18T12:39:31.340Z,69.41
2023-01-18T12:42:07.707Z,69.63
2023-01-18T12:44:37.554Z,69.39
2023-01-18T12:47:35.244Z,69.60
2023-01-18T12:50:08.787Z,69.56
2023-01-18T12:52:45.774Z,69.52
2023-01-18T12:55:21.319Z,69.50
2023-01-18T12:57:54.123Z,69.60
2023-01-18T13:00:37.709Z,69.54
2023-01-18T13:03:10.722Z,69.64
2023-01-18T13:05:52.592Z,69.71
2023-01-18T13:08:45.756Z,69.55
2023-01-18T13:11:32.028Z,69.55
2023-01-18T13:14:09.560Z,69.45
2023-01-18T13:17:00.773Z,69.59
2023-01-18T13:19:36.492Z,69.34
2023-01-18T13:22:26.656Z,69.50
2023-01-18T13:25:03.108Z,69.56
2023-01-18T13:27:31.466Z,69.69
2023-01-18T13:30:09.443Z,69.58
2023-01-18T13:32:38.276Z,69.74
2023-01-18T13:35:22.266Z,69.68
2023-01-18T13:37:56.396Z,69.61
2023-01-18T13:40:42.222Z,69.76
2023-01-18T13:43:32.952Z,69.69
2023-01-18T13:46:02.781Z,69.59
2023-01-18T13:48:51.117Z,69.56
2023-01-18T13:51:30.448Z,69.73
2023-01-18T13:53:57.777Z,69.65
2023-01-18T13:56:33.360Z,69.61
2023-01-18T13:59:02.059Z,69.62
2023-01-18T14:01:34.576Z,69.65
2023-01-18T14:04:23.115Z,69.67
2023-01-18T14:06:51.772Z,69.84
2023-01-18T14:09:31.556Z,69.69
2023-01-18T14:11:59.412Z,69.57
2023-01-18T14:14:31.015Z,69.61
2023-01-18T14:17:17.243Z,69.63
2023-01-18T14:19:47.923Z,69.63
2023-01-18T14:22:33.574Z,69.68
2023-01-18T14:25:19.552Z,69.62
2023-01-18T14:27:52.562Z,69.72
2023-01-18T14:30:31.055Z,69.61
2023-01-18T14:33:04.994Z,69.68
2023-01-18T14:35:32.248Z,69.53
2023-01-18T14:38:18.823Z,69.69
2023-01-18T14:40:55.340Z,69.67
2023-01-18T14:43:36.280Z,69.69
2023-01-18T14:46:07.649Z,69.68
2023-01-18T14:48:46.217Z,69.75
2023-01-18T14:51:18.948Z,69.71
2023-01-18T14:53:50.956Z,69.61
2023-01-18T14:56:24.560Z,69.64
2023-01-18T14:58:59.173Z,69.66
2023-01-18T15:01:31.825Z,69.66
2023-01-18T15:04:02.068Z,69.67
2023-01-18T15:06:46.778Z,69.87
2023-01-18T15:09:14.305Z,69.78
2023-01-18T15:11:43.968Z,69.84
2023-01-18T15:14:24.042Z,69.94
2023-01-18T15:16:55.132Z,69.76
2023-01-18T15:19:33.961Z,69.77
2023-01-18T15:22:04.545Z,69.77
2023-01-18T15:24:38.897Z,69.73
2023-01-18T15:27:06.540Z,69.63
2023-01-18T15:29:38.948Z,69.70
2023-01-18T15:32:13.350Z,69.81
2023-01-18T15:34:46.232Z,69.79
2023-01-18T15:37:24.119Z,69.87
2023-01-18T15:39:58.402Z,69.67
2023-01-18T15:42:44.212Z,69.91
2023-01-18T15:45:33.590Z,69.86
2023-01-18T15:48:06.714Z,69.74
2023-01-18T15:50:44.490Z,69.76
2023-01-18T15:53:30.606Z,69.86
2023-01-18T15:55:59.610Z,69.65
2023-01-18T15:58:27.021Z,69.67
2023-01-18T16:01:22.233Z,69.74
2023-01-18T16:03:49.989Z,69.64
2023-01-18T16:06:32.992Z,69.92
2023-01-18T16:09:16.110Z,69.95
2023-01-18T16:11:53.249Z,69.97
2023-01-18T16:14:27.989Z,69.95
2023-01-18T16:17:04.524Z,69.93
2023-01-18T16:19:35.875Z,69.91
2023-01-18T16:22:05.109Z,69.99
2023-01-18T16:24:42.388Z,70.10
2023-01-18T16:27:15.610Z,69.90
2023-01-18T16:29:55.981Z,69.80
2023-01-18T16:32:23.201Z,69.95
2023-01-18T16:34:51.589Z,69.90
2023-01-18T16:37:19.548Z,69.85
2023-01-18T16:39:47.134Z,69.77
2023-01-18T16:42:14.513Z,69.92
2023-01-18T16:44:46.625Z,69.81
2023-01-18T16:47:16.597Z,69.89
2023-01-18T16:49:44.228Z,69.94
2023-01-18T16:52:13.467Z,69.88
2023-01-18T16:54:45.069Z,69.96
2023-01-18T16:57:20.441Z,70.03
2023-01-18T16:59:48.395Z,69.80
2023-01-18T17:02:16.078Z,70.01
2023-01-18T17:04:44.973Z,69.93
2023-01-18T17:07:12.842Z,69.89
2023-01-18T17:09:48.463Z,69.91
2023-01-18T17:12:16.554Z,69.94
2023-01-18T17:14:43.765Z,70.10
2023-01-18T17:17:11.727Z,70.07
2023-01-18T17:19:40.652Z,70.08
2023-01-18T17:22:07.824Z,70.17
2023-01-18T17:24:35.015Z,70.08
2023-01-18T17:27:02.231Z,70.15
2023-01-18T17:29:29.788Z,70.16
2023-01-18T17:31:56.976Z,69.99
2023-01-18T17:34:30.021Z,70.16
2023-01-18T17:36:58.783Z,70.14
2023-01-18T17:39:42.573Z,69.99
2023-01-18T17:42:14.366Z,70.02
2023-01-18T17:44:43.705Z,69.96
2023-01-18T17:47:10.983Z,69.99
2023-01-18T17:49:38.235Z,70.04
2023-01-18T17:52:05.461Z,70.03
2023-01-18T17:54:34.986Z,70.18
2023-01-18T17:57:02.118Z,70.17
2023-01-18T17:59:29.365Z,70.12
2023-01-18T18:01:56.599Z,70.25
2023-01-18T18:04:23.808Z,70.28
2023-01-18T18:06:54.379Z,70.21
2023-01-18T18:09:21.883Z,70.15
2023-01-18T18:11:49.009Z,70.21
2023-01-18T18:14:17.693Z,70.12
2023-01-18T18:16:45.195Z,70.14
2023-01-18T18:19:15.193Z,70.19
2023-01-18T18:21:43.325Z,70.17
2023-01-18T18:24:10.521Z,70.07
2023-01-18T18:26:37.794Z,70.37
2023-01-18T18:29:04.962Z,70.26
2023-01-18T18:31:32.155Z,70.21
2023-01-18T18:33:59.377Z,70.17
2023-01-18T18:36:27.616Z,70.13
2023-01-18T18:38:54.940Z,70.21
2023-01-18T18:41:22.189Z,70.22
2023-01-18T18:43:49.521Z,70.11
2023-01-18T18:46:16.871Z,70.00
2023-01-18T18:48:44.178Z,70.16
2023-01-18T18:51:11.378Z,70.30
2023-01-18T18:53:39.240Z,70.32
2023-01-18T18:56:10.352Z,70.30
2023-01-18T18:58:39.319Z,70.24
2023-01-18T19:01:07.772Z,70.44
2023-01-18T19:03:35.504Z,70.34
2023-01-18T19:06:02.633Z,70.33
2023-01-18T19:08:29.806Z,70.15
2023-01-18T19:10:57.340Z,70.34
2023-01-18T19:13:24.469Z,70.23
2023-01-18T19:15:51.774Z,70.30
2023-01-18T19:18:19.004Z,70.40
2023-01-18T19:20:46.530Z,70.41
2023-01-18T19:23:13.755Z,70.41
2023-01-18T19:25:40.999Z,70.32
2023-01-18T19:28:08.339Z,70.27
2023-01-18T19:30:35.568Z,70.33
2023-01-18T19:33:03.529Z,70.47
2023-01-18T19:35:31.355Z,70.39
2023-01-18T19:38:00.995Z,70.35
2023-01-18T19:40:28.317Z,70.31
2023-01-18T19:42:56.161Z,70.39
2023-01-18T19:45:28.269Z,70.43
2023-01-18T19:47:58.419Z,70.27
2023-01-18T19:50:27.390Z,70.34
2023-01-18T19:52:54.886Z,70.45
2023-01-18T19:55:22.927Z,70.42
2023-01-18T19:57:51.148Z,70.42
2023-01-18T20:00:18.864Z,70.40
2023-01-18T20:02:46.252Z,70.62
2023-01-18T20:05:13.543Z,70.32
2023-01-18T20:07:40.976Z,70.40
2023-01-18T20:10:09.530Z,70.40
2023-01-18T20:12:37.179Z,70.43
2023-01-18T20:15:06.275Z,70.45
2023-01-18T20:17:33.510Z,70.42
2023-01-18T20:20:00.702Z,70.38
2023-01-18T20:22:27.773Z,70.42
2023-01-18T20:24:55.176Z,70.50
2023-01-18T20:27:22.294Z,70.34
2023-01-18T20:29:49.712Z,70.43
2023-01-18T20:32:17.918Z,70.49
2023-01-18T20:34:47.450Z,70.38
2023-01-18T20:37:15.742Z,70.59
2023-01-18T20:39:43.017Z,70.48
2023-01-18T20:42:10.188Z,70.54
2023-01-18T20:44:37.504Z,70.50
2023-01-18T20:47:05.110Z,70.33
2023-01-18T20:49:38.063Z,70.47
2023-01-18T20:52:07.240Z,70.40
2023-01-18T20:54:36.447Z,70.36
2023-01-18T20:57:06.231Z,70.32
2023-01-18T20:59:33.695Z,70.41
2023-01-18T21:02:02.075Z,70.37
2023-01-18T21:04:29.451Z,70.31
2023-01-18T21:06:57.445Z,70.58
2023-01-18T21:09:25.233Z,70.46
2023-01-18T21:11:52.529Z,70.46
2023-01-18T21:14:19.686Z,70.43
2023-01-18T21:16:47.117Z,70.54
2023-01-18T21:19:14.462Z,70.57
2023-01-18T21:21:41.719Z,70.56
2023-01-18T21:24:08.941Z,70.67
2023-01-18T21:26:37.891Z,70.60
2023-01-18T21:29:06.115Z,70.40
2023-01-18T21:31:33.327Z,70.46
2023-01-18T21:34:00.531Z,70.57
2023-01-18T21:36:27.679Z,70.50
2023-01-18T21:38:55.263Z,70.57
2023-01-18T21:41:40.926Z,70.51
2023-01-18T21:44:28.796Z,70.60
2023-01-18T21:46:56.274Z,70.63
2023-01-18T21:50:11.353Z,70.62
2023-01-18T21:52:48.924Z,70.66
2023-01-18T21:55:17.245Z,70.89
2023-01-18T21:57:44.609Z,70.74
2023-01-18T22:00:12.470Z,70.81
2023-01-18T22:02:39.728Z,70.75
2023-01-18T22:05:08.773Z,70.70
2023-01-18T22:07:36.157Z,70.64
2023-01-18T22:10:06.541Z,70.63
2023-01-18T22:12:36.067Z,70.66
2023-01-18T22:15:06.927Z,70.48
2023-01-18T22:17:34.168Z,70.64
2023-01-18T22:20:02.141Z,70.78
2023-01-18T22:22:29.533Z,70.80
2023-01-18T22:24:57.232Z,70.82
2023-01-18T22:27:24.430Z,70.60
2023-01-18T22:29:51.854Z,70.73
2023-01-18T22:32:19.088Z,70.67
2023-01-18T22:34:46.295Z,70.70
2023-01-18T22:37:13.552Z,70.78
2023-01-18T22:39:40.653Z,70.86
2023-01-18T22:42:07.799Z,70.84
2023-01-18T22:44:34.910Z,70.84
2023-01-18T22:47:02.062Z,70.91
2023-01-18T22:49:29.223Z,70.85
2023-01-18T22:51:56.338Z,70.72
2023-01-18T22:54:23.910Z,70.84
2023-01-18T22:56:51.109Z,70.83
2023-01-18T22:59:18.285Z,70.85
2023-01-18T23:01:45.492Z,71.02
2023-01-18T23:04:12.667Z,70.87
2023-01-18T23:06:46.825Z,70.78
2023-01-18T23:09:16.008Z,70.86
2023-01-18T23:11:43.103Z,70.90
2023-01-18T23:14:29.377Z,70.95
2023-01-18T23:17:14.888Z,70.89
2023-01-18T23:19:42.077Z,70.97
2023-01-18T23:22:09.328Z,71.00
2023-01-18T23:24:37.439Z,70.96
2023-01-18T23:27:07.118Z,70.96
2023-01-18T23:29:34.289Z,70.88
2023-01-18T23:32:01.524Z,70.96
2023-01-18T23:34:28.707Z,71.07
2023-01-18T23:36:55.903Z,70.95
2023-01-18T23:39:42.075Z,70.98
2023-01-18T23:42:27.631Z,70.98
2023-01-18T23:45:13.427Z,71.06
2023-01-18T23:47:59.681Z,70.97
2023-01-18T23:50:45.692Z,70.97
2023-01-18T23:53:32.324Z,71.00
2023-01-18T23:56:00.036Z,70.99
2023-01-18T23:58:27.319Z,71.06
